sensor_id;sensor_type;location;lat;lon;timestamp;P1;P2;P0
71097;PMS7003;58754;47.622;-2.986;2023-03-01T00:01:52;1.25;1.00;1.00
71097;PMS7003;58754;47.622;-2.986;2023-03-01T00:04:18;4.50;1.75;1.75
71097;PMS7003;58754;47.622;-2.986;2023-03-01T00:06:44;3.00;2.00;2.00
71097;PMS7003;58754;47.622;-2.986;2023-03-01T00:09:13;3.00;2.00;1.50
71097;PMS7003;58754;47.622;-2.986;2023-03-01T00:11:40;2.00;1.75;1.50
71097;PMS7003;58754;47.622;-2.986;2023-03-01T00:14:06;2.00;2.00;2.00
71097;PMS7003;58754;47.622;-2.986;2023-03-01T00:16:33;2.50;2.50;2.00
71097;PMS7003;58754;47.622;-2.986;2023-03-01T00:19:01;2.00;2.00;2.00
71097;PMS7003;58754;47.622;-2.986;2023-03-01T00:21:27;2.75;2.00;1.75
71097;PMS7003;58754;47.622;-2.986;2023-03-01T00:23:53;4.00;2.00;2.00
71097;PMS7003;58754;47.622;-2.986;2023-03-01T00:26:20;3.00;2.00;1.75
71097;PMS7003;58754;47.622;-2.986;2023-03-01T00:28:48;4.00;2.75;2.00
71097;PMS7003;58754;47.622;-2.986;2023-03-01T00:31:15;2.00;2.00;2.00
71097;PMS7003;58754;47.622;-2.986;2023-03-01T00:33:42;5.00;3.00;3.00
71097;PMS7003;58754;47.622;-2.986;2023-03-01T00:36:08;4.00;3.75;3.25
71097;PMS7003;58754;47.622;-2.986;2023-03-01T00:38:35;3.00;3.00;2.75
71097;PMS7003;58754;47.622;-2.986;2023-03-01T00:41:06;3.00;3.00;2.00
71097;PMS7003;58754;47.622;-2.986;2023-03-01T00:43:33;3.00;3.00;2.00
71097;PMS7003;58754;47.622;-2.986;2023-03-01T00:46:05;4.50;3.00;2.50
71097;PMS7003;58754;47.622;-2.986;2023-03-01T00:48:33;4.25;4.25;3.00
71097;PMS7003;58754;47.622;-2.986;2023-03-01T00:51:09;3.75;2.25;2.00
71097;PMS7003;58754;47.622;-2.986;2023-03-01T00:53:38;3.00;3.00;3.00
71097;PMS7003;58754;47.622;-2.986;2023-03-01T00:56:05;4.50;4.50;3.00
71097;PMS7003;58754;47.622;-2.986;2023-03-01T00:58:32;3.00;3.00;2.00
71097;PMS7003;58754;47.622;-2.986;2023-03-01T01:00:59;5.00;4.00;3.00
71097;PMS7003;58754;47.622;-2.986;2023-03-01T01:03:25;4.75;4.75;3.75
71097;PMS7003;58754;47.622;-2.986;2023-03-01T01:05:51;4.75;4.75;3.75
71097;PMS7003;58754;47.622;-2.986;2023-03-01T01:08:18;4.00;4.00;3.50
71097;PMS7003;58754;47.622;-2.986;2023-03-01T01:10:45;4.75;4.75;4.00
71097;PMS7003;58754;47.622;-2.986;2023-03-01T01:13:12;5.50;4.00;3.50
71097;PMS7003;58754;47.622;-2.986;2023-03-01T01:15:38;5.00;3.75;3.25
71097;PMS7003;58754;47.622;-2.986;2023-03-01T01:18:04;4.25;4.00;2.00
71097;PMS7003;58754;47.622;-2.986;2023-03-01T01:20:30;6.75;4.00;3.00
71097;PMS7003;58754;47.622;-2.986;2023-03-01T01:22:55;6.00;4.25;4.00
71097;PMS7003;58754;47.622;-2.986;2023-03-01T01:25:21;3.50;3.50;3.00
71097;PMS7003;58754;47.622;-2.986;2023-03-01T01:27:50;7.25;4.00;3.75
71097;PMS7003;58754;47.622;-2.986;2023-03-01T01:30:16;6.00;4.25;4.00
71097;PMS7003;58754;47.622;-2.986;2023-03-01T01:32:42;5.00;5.00;4.00
71097;PMS7003;58754;47.622;-2.986;2023-03-01T01:35:07;5.00;5.00;4.00
71097;PMS7003;58754;47.622;-2.986;2023-03-01T01:37:33;5.50;5.50;4.50
71097;PMS7003;58754;47.622;-2.986;2023-03-01T01:40:02;4.00;4.00;3.25
71097;PMS7003;58754;47.622;-2.986;2023-03-01T01:42:31;7.00;6.00;5.25
71097;PMS7003;58754;47.622;-2.986;2023-03-01T01:48:05;5.75;5.75;4.00
71097;PMS7003;58754;47.622;-2.986;2023-03-01T01:50:41;5.00;5.00;4.00
71097;PMS7003;58754;47.622;-2.986;2023-03-01T01:53:11;6.50;5.50;4.00
71097;PMS7003;58754;47.622;-2.986;2023-03-01T01:55:43;5.00;4.00;3.00
71097;PMS7003;58754;47.622;-2.986;2023-03-01T01:58:13;6.00;4.75;3.75
71097;PMS7003;58754;47.622;-2.986;2023-03-01T02:00:42;5.25;4.00;4.00
71097;PMS7003;58754;47.622;-2.986;2023-03-01T02:06:18;8.50;4.75;3.50
71097;PMS7003;58754;47.622;-2.986;2023-03-01T02:09:06;6.75;5.00;5.00
71097;PMS7003;58754;47.622;-2.986;2023-03-01T02:11:36;7.25;6.00;5.25
71097;PMS7003;58754;47.622;-2.986;2023-03-01T02:14:03;8.50;5.25;4.25
71097;PMS7003;58754;47.622;-2.986;2023-03-01T02:16:29;9.00;6.00;5.00
71097;PMS7003;58754;47.622;-2.986;2023-03-01T02:18:55;8.25;6.50;5.75
71097;PMS7003;58754;47.622;-2.986;2023-03-01T02:24:02;8.50;8.50;5.50
71097;PMS7003;58754;47.622;-2.986;2023-03-01T02:26:51;7.00;6.75;5.00
71097;PMS7003;58754;47.622;-2.986;2023-03-01T02:29:21;5.75;5.75;5.00
71097;PMS7003;58754;47.622;-2.986;2023-03-01T02:31:47;6.00;6.00;5.50
71097;PMS7003;58754;47.622;-2.986;2023-03-01T02:34:18;10.50;8.75;6.50
71097;PMS7003;58754;47.622;-2.986;2023-03-01T02:39:19;6.50;6.00;5.00
71097;PMS7003;58754;47.622;-2.986;2023-03-01T02:41:51;8.75;8.25;7.00
71097;PMS7003;58754;47.622;-2.986;2023-03-01T02:44:19;5.00;5.00;4.25
71097;PMS7003;58754;47.622;-2.986;2023-03-01T02:46:47;7.00;7.00;5.00
71097;PMS7003;58754;47.622;-2.986;2023-03-01T02:49:25;6.50;6.00;5.00
71097;PMS7003;58754;47.622;-2.986;2023-03-01T02:54:41;7.00;6.00;5.00
71097;PMS7003;58754;47.622;-2.986;2023-03-01T02:57:16;5.75;5.50;5.00
71097;PMS7003;58754;47.622;-2.986;2023-03-01T02:59:43;6.00;6.00;5.00
71097;PMS7003;58754;47.622;-2.986;2023-03-01T03:02:19;10.25;7.25;5.00
71097;PMS7003;58754;47.622;-2.986;2023-03-01T03:05:02;6.25;5.25;5.00
71097;PMS7003;58754;47.622;-2.986;2023-03-01T03:07:34;10.50;8.75;7.00
71097;PMS7003;58754;47.622;-2.986;2023-03-01T03:10:02;7.50;7.00;6.50
71097;PMS7003;58754;47.622;-2.986;2023-03-01T03:12:30;8.50;8.00;6.75
71097;PMS7003;58754;47.622;-2.986;2023-03-01T03:14:55;11.75;6.00;6.00
71097;PMS7003;58754;47.622;-2.986;2023-03-01T03:17:21;9.00;7.00;5.00
71097;PMS7003;58754;47.622;-2.986;2023-03-01T03:19:47;9.25;7.25;6.00
71097;PMS7003;58754;47.622;-2.986;2023-03-01T03:22:13;11.00;6.75;6.00
71097;PMS7003;58754;47.622;-2.986;2023-03-01T03:24:39;8.75;8.00;6.25
71097;PMS7003;58754;47.622;-2.986;2023-03-01T03:27:05;6.25;6.25;4.25
71097;PMS7003;58754;47.622;-2.986;2023-03-01T03:29:31;8.25;7.00;6.00
71097;PMS7003;58754;47.622;-2.986;2023-03-01T03:31:58;8.50;7.25;5.50
71097;PMS7003;58754;47.622;-2.986;2023-03-01T03:34:24;11.00;8.25;6.75
71097;PMS7003;58754;47.622;-2.986;2023-03-01T03:36:53;11.00;8.00;7.00
71097;PMS7003;58754;47.622;-2.986;2023-03-01T03:39:25;8.75;8.00;7.00
71097;PMS7003;58754;47.622;-2.986;2023-03-01T03:42:00;7.00;7.00;6.00
71097;PMS7003;58754;47.622;-2.986;2023-03-01T03:44:26;12.75;9.25;7.00
71097;PMS7003;58754;47.622;-2.986;2023-03-01T03:46:52;8.25;7.75;6.75
71097;PMS7003;58754;47.622;-2.986;2023-03-01T03:49:17;7.25;7.25;6.25
71097;PMS7003;58754;47.622;-2.986;2023-03-01T03:51:44;9.50;9.00;7.00
71097;PMS7003;58754;47.622;-2.986;2023-03-01T03:54:11;8.00;8.00;5.00
71097;PMS7003;58754;47.622;-2.986;2023-03-01T03:56:37;8.75;8.75;7.25
71097;PMS7003;58754;47.622;-2.986;2023-03-01T03:59:02;11.00;7.75;6.25
71097;PMS7003;58754;47.622;-2.986;2023-03-01T04:01:28;11.00;10.00;7.00
71097;PMS7003;58754;47.622;-2.986;2023-03-01T04:03:54;9.50;7.25;6.00
71097;PMS7003;58754;47.622;-2.986;2023-03-01T04:06:20;8.50;8.25;6.50
71097;PMS7003;58754;47.622;-2.986;2023-03-01T04:08:46;8.00;8.00;6.00
71097;PMS7003;58754;47.622;-2.986;2023-03-01T04:11:11;10.25;8.25;7.00
71097;PMS7003;58754;47.622;-2.986;2023-03-01T04:13:53;11.25;9.00;7.00
71097;PMS7003;58754;47.622;-2.986;2023-03-01T04:16:20;11.00;10.50;8.50
71097;PMS7003;58754;47.622;-2.986;2023-03-01T04:18:46;10.00;8.25;7.00
71097;PMS7003;58754;47.622;-2.986;2023-03-01T04:21:12;16.75;11.00;9.75
71097;PMS7003;58754;47.622;-2.986;2023-03-01T04:23:38;8.75;8.75;7.25
71097;PMS7003;58754;47.622;-2.986;2023-03-01T04:26:06;11.50;9.00;7.00
71097;PMS7003;58754;47.622;-2.986;2023-03-01T04:31:02;10.00;8.00;7.00
71097;PMS7003;58754;47.622;-2.986;2023-03-01T04:33:38;13.50;11.00;9.00
71097;PMS7003;58754;47.622;-2.986;2023-03-01T04:36:09;12.25;10.75;7.75
71097;PMS7003;58754;47.622;-2.986;2023-03-01T04:38:36;11.50;9.25;8.00
71097;PMS7003;58754;47.622;-2.986;2023-03-01T04:41:06;14.00;13.75;8.50
71097;PMS7003;58754;47.622;-2.986;2023-03-01T04:43:34;10.50;10.50;8.50
71097;PMS7003;58754;47.622;-2.986;2023-03-01T04:46:01;11.00;10.25;9.00
71097;PMS7003;58754;47.622;-2.986;2023-03-01T04:48:28;12.25;7.50;6.25
71097;PMS7003;58754;47.622;-2.986;2023-03-01T04:50:55;13.50;10.00;8.00
71097;PMS7003;58754;47.622;-2.986;2023-03-01T04:53:20;12.25;10.50;8.00
71097;PMS7003;58754;47.622;-2.986;2023-03-01T04:55:46;9.25;8.75;7.00
71097;PMS7003;58754;47.622;-2.986;2023-03-01T04:58:12;12.00;10.50;9.00
71097;PMS7003;58754;47.622;-2.986;2023-03-01T05:00:37;10.75;10.25;8.00
71097;PMS7003;58754;47.622;-2.986;2023-03-01T05:03:03;12.25;9.25;7.50
71097;PMS7003;58754;47.622;-2.986;2023-03-01T05:05:36;11.50;11.50;9.00
71097;PMS7003;58754;47.622;-2.986;2023-03-01T05:08:05;13.25;12.25;9.00
71097;PMS7003;58754;47.622;-2.986;2023-03-01T05:10:32;10.25;10.25;8.00
71097;PMS7003;58754;47.622;-2.986;2023-03-01T05:13:00;11.25;9.50;7.50
71097;PMS7003;58754;47.622;-2.986;2023-03-01T05:15:28;12.50;11.00;8.75
71097;PMS7003;58754;47.622;-2.986;2023-03-01T05:17:55;11.50;10.25;7.75
71097;PMS7003;58754;47.622;-2.986;2023-03-01T05:20:24;10.25;9.25;8.00
71097;PMS7003;58754;47.622;-2.986;2023-03-01T05:22:57;13.00;10.75;8.25
71097;PMS7003;58754;47.622;-2.986;2023-03-01T05:25:24;15.25;13.00;9.00
71097;PMS7003;58754;47.622;-2.986;2023-03-01T05:27:50;9.75;9.50;7.25
71097;PMS7003;58754;47.622;-2.986;2023-03-01T05:30:16;10.25;10.25;8.50
71097;PMS7003;58754;47.622;-2.986;2023-03-01T05:32:44;14.75;12.75;10.25
71097;PMS7003;58754;47.622;-2.986;2023-03-01T05:35:12;12.00;10.75;9.00
71097;PMS7003;58754;47.622;-2.986;2023-03-01T05:37:43;13.25;10.00;8.00
71097;PMS7003;58754;47.622;-2.986;2023-03-01T05:40:14;10.75;9.75;8.00
71097;PMS7003;58754;47.622;-2.986;2023-03-01T05:42:46;14.25;11.75;8.25
71097;PMS7003;58754;47.622;-2.986;2023-03-01T05:45:14;12.75;12.75;9.00
71097;PMS7003;58754;47.622;-2.986;2023-03-01T05:47:41;11.25;11.25;8.00
71097;PMS7003;58754;47.622;-2.986;2023-03-01T05:50:22;12.50;9.50;7.25
71097;PMS7003;58754;47.622;-2.986;2023-03-01T05:52:51;15.25;14.00;11.00
71097;PMS7003;58754;47.622;-2.986;2023-03-01T05:55:21;14.75;12.50;9.50
71097;PMS7003;58754;47.622;-2.986;2023-03-01T05:57:47;19.25;12.25;10.00
71097;PMS7003;58754;47.622;-2.986;2023-03-01T06:00:15;16.75;11.75;8.50
71097;PMS7003;58754;47.622;-2.986;2023-03-01T06:02:42;10.50;10.00;8.00
71097;PMS7003;58754;47.622;-2.986;2023-03-01T06:05:10;14.00;10.75;8.50
71097;PMS7003;58754;47.622;-2.986;2023-03-01T06:07:37;13.25;11.50;9.00
71097;PMS7003;58754;47.622;-2.986;2023-03-01T06:10:06;15.50;12.25;9.50
71097;PMS7003;58754;47.622;-2.986;2023-03-01T06:12:34;11.50;11.00;9.00
71097;PMS7003;58754;47.622;-2.986;2023-03-01T06:15:01;19.25;15.25;11.00
71097;PMS7003;58754;47.622;-2.986;2023-03-01T06:17:31;16.25;11.50;9.00
71097;PMS7003;58754;47.622;-2.986;2023-03-01T06:20:03;17.25;12.75;10.25
71097;PMS7003;58754;47.622;-2.986;2023-03-01T06:22:34;18.25;13.75;9.75
71097;PMS7003;58754;47.622;-2.986;2023-03-01T06:24:59;11.00;11.00;8.75
71097;PMS7003;58754;47.622;-2.986;2023-03-01T06:27:25;13.50;12.00;10.00
71097;PMS7003;58754;47.622;-2.986;2023-03-01T06:29:51;15.75;12.25;9.75
71097;PMS7003;58754;47.622;-2.986;2023-03-01T06:32:16;13.00;12.50;10.00
71097;PMS7003;58754;47.622;-2.986;2023-03-01T06:34:42;11.75;10.75;8.25
71097;PMS7003;58754;47.622;-2.986;2023-03-01T06:37:08;15.50;12.25;8.75
71097;PMS7003;58754;47.622;-2.986;2023-03-01T06:39:34;14.00;12.00;9.50
71097;PMS7003;58754;47.622;-2.986;2023-03-01T06:41:59;14.00;10.00;8.00
71097;PMS7003;58754;47.622;-2.986;2023-03-01T06:44:25;15.50;11.75;9.25
71097;PMS7003;58754;47.622;-2.986;2023-03-01T06:46:51;18.00;12.25;10.00
71097;PMS7003;58754;47.622;-2.986;2023-03-01T06:49:17;12.00;10.25;8.75
71097;PMS7003;58754;47.622;-2.986;2023-03-01T06:51:43;13.00;11.25;9.00
71097;PMS7003;58754;47.622;-2.986;2023-03-01T06:54:09;12.00;10.00;9.00
71097;PMS7003;58754;47.622;-2.986;2023-03-01T06:56:35;15.00;11.25;9.00
71097;PMS7003;58754;47.622;-2.986;2023-03-01T06:59:01;17.00;11.75;9.25
71097;PMS7003;58754;47.622;-2.986;2023-03-01T07:01:28;15.00;11.50;8.25
71097;PMS7003;58754;47.622;-2.986;2023-03-01T07:03:54;14.00;12.50;9.50
71097;PMS7003;58754;47.622;-2.986;2023-03-01T07:06:20;14.25;10.25;7.75
71097;PMS7003;58754;47.622;-2.986;2023-03-01T07:08:46;15.75;12.00;8.25
71097;PMS7003;58754;47.622;-2.986;2023-03-01T07:11:12;14.50;8.75;8.00
71097;PMS7003;58754;47.622;-2.986;2023-03-01T07:13:38;11.25;11.25;7.75
71097;PMS7003;58754;47.622;-2.986;2023-03-01T07:16:04;16.00;13.25;9.25
71097;PMS7003;58754;47.622;-2.986;2023-03-01T07:18:30;15.50;11.25;9.25
71097;PMS7003;58754;47.622;-2.986;2023-03-01T07:20:56;16.50;13.00;10.75
71097;PMS7003;58754;47.622;-2.986;2023-03-01T07:23:21;11.50;11.00;9.00
71097;PMS7003;58754;47.622;-2.986;2023-03-01T07:25:53;13.75;11.25;8.50
71097;PMS7003;58754;47.622;-2.986;2023-03-01T07:28:20;15.00;11.75;9.00
71097;PMS7003;58754;47.622;-2.986;2023-03-01T07:30:47;12.25;11.25;9.25
71097;PMS7003;58754;47.622;-2.986;2023-03-01T07:33:13;17.00;14.00;10.00
71097;PMS7003;58754;47.622;-2.986;2023-03-01T07:35:38;12.50;10.25;8.25
71097;PMS7003;58754;47.622;-2.986;2023-03-01T07:38:04;15.25;10.00;8.50
71097;PMS7003;58754;47.622;-2.986;2023-03-01T07:40:30;16.00;12.75;9.25
71097;PMS7003;58754;47.622;-2.986;2023-03-01T07:42:56;11.50;10.75;7.75
71097;PMS7003;58754;47.622;-2.986;2023-03-01T07:45:23;10.00;9.75;7.00
71097;PMS7003;58754;47.622;-2.986;2023-03-01T07:47:52;11.25;9.00;7.75
71097;PMS7003;58754;47.622;-2.986;2023-03-01T07:50:18;14.00;12.25;10.00
71097;PMS7003;58754;47.622;-2.986;2023-03-01T07:52:48;13.00;11.25;9.25
71097;PMS7003;58754;47.622;-2.986;2023-03-01T07:55:14;13.00;13.00;10.00
71097;PMS7003;58754;47.622;-2.986;2023-03-01T07:57:41;13.75;12.25;9.50
71097;PMS7003;58754;47.622;-2.986;2023-03-01T08:00:08;11.75;11.75;9.00
71097;PMS7003;58754;47.622;-2.986;2023-03-01T08:02:36;13.50;9.25;8.00
71097;PMS7003;58754;47.622;-2.986;2023-03-01T08:05:02;14.00;11.25;9.00
71097;PMS7003;58754;47.622;-2.986;2023-03-01T08:07:28;13.50;11.75;9.50
71097;PMS7003;58754;47.622;-2.986;2023-03-01T08:09:54;14.75;12.75;9.25
71097;PMS7003;58754;47.622;-2.986;2023-03-01T08:12:20;14.00;10.75;8.50
71097;PMS7003;58754;47.622;-2.986;2023-03-01T08:14:45;11.00;11.00;7.75
71097;PMS7003;58754;47.622;-2.986;2023-03-01T08:17:13;11.50;10.00;8.25
71097;PMS7003;58754;47.622;-2.986;2023-03-01T08:19:39;11.25;11.25;8.00
71097;PMS7003;58754;47.622;-2.986;2023-03-01T08:22:05;16.00;13.50;9.00
71097;PMS7003;58754;47.622;-2.986;2023-03-01T08:24:30;10.50;10.25;8.25
71097;PMS7003;58754;47.622;-2.986;2023-03-01T08:26:56;11.00;11.00;8.50
71097;PMS7003;58754;47.622;-2.986;2023-03-01T08:29:22;11.25;11.00;9.00
71097;PMS7003;58754;47.622;-2.986;2023-03-01T08:31:49;11.50;10.00;9.00
71097;PMS7003;58754;47.622;-2.986;2023-03-01T08:34:16;13.25;10.50;8.25
71097;PMS7003;58754;47.622;-2.986;2023-03-01T08:36:44;12.25;10.75;8.25
71097;PMS7003;58754;47.622;-2.986;2023-03-01T08:39:12;10.50;9.25;8.00
71097;PMS7003;58754;47.622;-2.986;2023-03-01T08:41:39;12.75;10.25;8.50
71097;PMS7003;58754;47.622;-2.986;2023-03-01T08:44:06;11.25;11.25;10.00
71097;PMS7003;58754;47.622;-2.986;2023-03-01T08:46:33;14.75;11.75;9.00
71097;PMS7003;58754;47.622;-2.986;2023-03-01T08:49:03;13.50;12.50;9.00
71097;PMS7003;58754;47.622;-2.986;2023-03-01T08:51:30;10.50;10.25;9.00
71097;PMS7003;58754;47.622;-2.986;2023-03-01T08:54:02;10.00;10.00;8.75
71097;PMS7003;58754;47.622;-2.986;2023-03-01T08:56:46;13.00;9.50;8.00
71097;PMS7003;58754;47.622;-2.986;2023-03-01T08:59:13;11.50;9.75;7.00
71097;PMS7003;58754;47.622;-2.986;2023-03-01T09:01:40;9.25;8.00;6.75
71097;PMS7003;58754;47.622;-2.986;2023-03-01T09:04:08;10.75;9.50;7.25
71097;PMS7003;58754;47.622;-2.986;2023-03-01T09:06:35;12.00;11.00;7.50
71097;PMS7003;58754;47.622;-2.986;2023-03-01T09:09:02;11.75;11.00;9.50
71097;PMS7003;58754;47.622;-2.986;2023-03-01T09:11:29;10.00;9.50;6.25
71097;PMS7003;58754;47.622;-2.986;2023-03-01T09:13:55;10.25;8.75;6.00
71097;PMS7003;58754;47.622;-2.986;2023-03-01T09:16:21;8.75;7.25;6.75
71097;PMS7003;58754;47.622;-2.986;2023-03-01T09:18:51;10.75;9.75;7.50
71097;PMS7003;58754;47.622;-2.986;2023-03-01T09:21:20;12.25;10.00;8.50
71097;PMS7003;58754;47.622;-2.986;2023-03-01T09:23:48;9.00;9.00;8.00
71097;PMS7003;58754;47.622;-2.986;2023-03-01T09:26:18;9.00;8.50;7.00
71097;PMS7003;58754;47.622;-2.986;2023-03-01T09:28:47;16.75;11.50;8.75
71097;PMS7003;58754;47.622;-2.986;2023-03-01T09:31:17;11.25;10.75;9.00
71097;PMS7003;58754;47.622;-2.986;2023-03-01T09:33:47;10.75;8.50;7.75
71097;PMS7003;58754;47.622;-2.986;2023-03-01T09:36:22;9.50;9.50;7.00
71097;PMS7003;58754;47.622;-2.986;2023-03-01T09:38:50;15.25;11.25;8.25
71097;PMS7003;58754;47.622;-2.986;2023-03-01T09:46:42;9.50;9.25;7.75
71097;PMS7003;58754;47.622;-2.986;2023-03-01T09:49:26;12.25;9.00;8.00
71097;PMS7003;58754;47.622;-2.986;2023-03-01T09:54:54;11.50;9.50;8.00
71097;PMS7003;58754;47.622;-2.986;2023-03-01T10:00:33;9.50;9.25;8.00
71097;PMS7003;58754;47.622;-2.986;2023-03-01T10:03:41;11.75;11.00;7.00
71097;PMS7003;58754;47.622;-2.986;2023-03-01T10:06:19;11.00;10.00;6.00
71097;PMS7003;58754;47.622;-2.986;2023-03-01T10:09:02;8.25;6.75;6.75
71097;PMS7003;58754;47.622;-2.986;2023-03-01T10:11:34;11.75;7.50;6.75
71097;PMS7003;58754;47.622;-2.986;2023-03-01T10:14:43;10.75;7.50;6.00
71097;PMS7003;58754;47.622;-2.986;2023-03-01T10:19:45;9.25;9.25;7.75
71097;PMS7003;58754;47.622;-2.986;2023-03-01T10:22:22;10.00;10.00;8.00
71097;PMS7003;58754;47.622;-2.986;2023-03-01T10:24:53;9.00;9.00;7.00
71097;PMS7003;58754;47.622;-2.986;2023-03-01T10:27:33;9.00;8.00;5.75
71097;PMS7003;58754;47.622;-2.986;2023-03-01T10:32:48;10.50;8.00;6.00
71097;PMS7003;58754;47.622;-2.986;2023-03-01T10:37:58;7.25;7.25;6.00
71097;PMS7003;58754;47.622;-2.986;2023-03-01T10:40:27;11.75;9.25;6.25
71097;PMS7003;58754;47.622;-2.986;2023-03-01T10:42:53;11.25;7.00;5.50
71097;PMS7003;58754;47.622;-2.986;2023-03-01T10:47:57;9.50;7.75;6.00
71097;PMS7003;58754;47.622;-2.986;2023-03-01T10:50:49;10.00;7.50;6.25
71097;PMS7003;58754;47.622;-2.986;2023-03-01T10:53:34;9.25;8.50;7.00
71097;PMS7003;58754;47.622;-2.986;2023-03-01T10:56:04;11.00;10.00;7.00
71097;PMS7003;58754;47.622;-2.986;2023-03-01T10:58:32;10.75;8.00;7.00
71097;PMS7003;58754;47.622;-2.986;2023-03-01T11:03:41;9.25;9.25;7.00
71097;PMS7003;58754;47.622;-2.986;2023-03-01T11:08:39;10.75;9.00;7.00
71097;PMS7003;58754;47.622;-2.986;2023-03-01T11:16:29;9.25;8.75;7.00
71097;PMS7003;58754;47.622;-2.986;2023-03-01T11:19:04;7.75;7.75;7.00
71097;PMS7003;58754;47.622;-2.986;2023-03-01T11:21:39;9.00;9.00;7.75
71097;PMS7003;58754;47.622;-2.986;2023-03-01T11:24:15;8.75;7.75;6.00
71097;PMS7003;58754;47.622;-2.986;2023-03-01T11:26:45;10.00;8.50;7.25
71097;PMS7003;58754;47.622;-2.986;2023-03-01T11:29:38;13.00;10.25;7.25
71097;PMS7003;58754;47.622;-2.986;2023-03-01T11:32:07;9.00;8.00;6.25
71097;PMS7003;58754;47.622;-2.986;2023-03-01T11:40:24;10.75;8.75;6.75
71097;PMS7003;58754;47.622;-2.986;2023-03-01T11:45:26;9.75;8.00;7.00
71097;PMS7003;58754;47.622;-2.986;2023-03-01T11:51:12;9.00;8.25;6.25
71097;PMS7003;58754;47.622;-2.986;2023-03-01T11:53:58;10.50;8.75;5.75
71097;PMS7003;58754;47.622;-2.986;2023-03-01T12:01:58;9.00;7.00;5.50
71097;PMS7003;58754;47.622;-2.986;2023-03-01T12:27:13;13.00;10.00;7.25
71097;PMS7003;58754;47.622;-2.986;2023-03-01T12:33:17;15.25;9.25;8.00
71097;PMS7003;58754;47.622;-2.986;2023-03-01T12:36:12;9.00;7.50;6.25
71097;PMS7003;58754;47.622;-2.986;2023-03-01T12:50:12;12.50;10.25;8.25
71097;PMS7003;58754;47.622;-2.986;2023-03-01T12:52:51;8.50;6.00;6.00
71097;PMS7003;58754;47.622;-2.986;2023-03-01T12:58:09;8.00;8.00;6.25
71097;PMS7003;58754;47.622;-2.986;2023-03-01T13:00:51;10.50;9.75;6.00
71097;PMS7003;58754;47.622;-2.986;2023-03-01T13:06:15;12.75;11.50;9.25
71097;PMS7003;58754;47.622;-2.986;2023-03-01T13:23:24;16.50;15.25;10.50
71097;PMS7003;58754;47.622;-2.986;2023-03-01T13:30:59;15.75;10.50;8.00
71097;PMS7003;58754;47.622;-2.986;2023-03-01T13:35:51;12.25;10.00;6.00
71097;PMS7003;58754;47.622;-2.986;2023-03-01T13:47:36;14.25;13.50;9.00
71097;PMS7003;58754;47.622;-2.986;2023-03-01T13:49:47;16.00;14.50;9.75
71097;PMS7003;58754;47.622;-2.986;2023-03-01T13:52:37;11.00;10.75;8.50
71097;PMS7003;58754;47.622;-2.986;2023-03-01T13:55:14;11.00;11.00;8.00
71097;PMS7003;58754;47.622;-2.986;2023-03-01T13:58:01;12.50;10.00;9.00
71097;PMS7003;58754;47.622;-2.986;2023-03-01T14:00:33;17.25;11.25;9.25
71097;PMS7003;58754;47.622;-2.986;2023-03-01T14:03:14;13.50;12.00;8.75
71097;PMS7003;58754;47.622;-2.986;2023-03-01T14:06:30;16.75;11.00;8.00
71097;PMS7003;58754;47.622;-2.986;2023-03-01T14:08:31;10.00;10.00;8.00
71097;PMS7003;58754;47.622;-2.986;2023-03-01T14:20:24;12.25;9.00;6.75
71097;PMS7003;58754;47.622;-2.986;2023-03-01T14:22:53;11.75;11.00;7.25
71097;PMS7003;58754;47.622;-2.986;2023-03-01T14:25:21;13.75;12.75;7.75
71097;PMS7003;58754;47.622;-2.986;2023-03-01T14:27:54;12.50;11.75;8.50
71097;PMS7003;58754;47.622;-2.986;2023-03-01T14:30:27;15.50;12.75;8.00
71097;PMS7003;58754;47.622;-2.986;2023-03-01T14:33:02;12.25;11.75;8.25
71097;PMS7003;58754;47.622;-2.986;2023-03-01T14:35:31;13.00;12.25;9.00
71097;PMS7003;58754;47.622;-2.986;2023-03-01T14:37:59;11.25;10.00;8.00
71097;PMS7003;58754;47.622;-2.986;2023-03-01T14:42:51;13.50;10.50;7.50
71097;PMS7003;58754;47.622;-2.986;2023-03-01T14:45:18;10.00;10.00;8.00
71097;PMS7003;58754;47.622;-2.986;2023-03-01T14:47:45;16.25;11.00;9.00
71097;PMS7003;58754;47.622;-2.986;2023-03-01T14:50:30;10.75;10.25;7.75
71097;PMS7003;58754;47.622;-2.986;2023-03-01T14:53:03;16.00;12.75;8.50
71097;PMS7003;58754;47.622;-2.986;2023-03-01T14:55:33;11.00;10.75;8.75
71097;PMS7003;58754;47.622;-2.986;2023-03-01T14:58:05;17.00;11.00;9.00
71097;PMS7003;58754;47.622;-2.986;2023-03-01T15:00:36;16.00;11.50;10.00
71097;PMS7003;58754;47.622;-2.986;2023-03-01T15:03:07;19.75;13.25;10.25
71097;PMS7003;58754;47.622;-2.986;2023-03-01T15:05:39;11.25;10.25;8.75
71097;PMS7003;58754;47.622;-2.986;2023-03-01T15:08:07;15.25;11.50;8.00
71097;PMS7003;58754;47.622;-2.986;2023-03-01T15:10:55;12.00;10.75;8.25
71097;PMS7003;58754;47.622;-2.986;2023-03-01T15:13:29;10.25;10.25;8.00
71097;PMS7003;58754;47.622;-2.986;2023-03-01T15:16:07;14.00;12.25;9.00
71097;PMS7003;58754;47.622;-2.986;2023-03-01T15:19:15;15.00;12.25;8.00
71097;PMS7003;58754;47.622;-2.986;2023-03-01T15:21:35;14.25;12.75;8.75
71097;PMS7003;58754;47.622;-2.986;2023-03-01T15:26:45;18.00;13.00;9.75
71097;PMS7003;58754;47.622;-2.986;2023-03-01T15:29:26;15.25;15.25;11.00
71097;PMS7003;58754;47.622;-2.986;2023-03-01T15:34:32;15.00;12.50;8.75
71097;PMS7003;58754;47.622;-2.986;2023-03-01T15:36:59;14.00;13.25;9.75
71097;PMS7003;58754;47.622;-2.986;2023-03-01T15:42:06;15.75;14.00;10.00
71097;PMS7003;58754;47.622;-2.986;2023-03-01T15:47:46;15.50;12.50;9.50
71097;PMS7003;58754;47.622;-2.986;2023-03-01T15:50:32;14.00;14.00;10.75
71097;PMS7003;58754;47.622;-2.986;2023-03-01T15:53:01;16.50;15.00;11.00
71097;PMS7003;58754;47.622;-2.986;2023-03-01T15:55:33;18.00;14.50;11.25
71097;PMS7003;58754;47.622;-2.986;2023-03-01T15:58:00;12.25;11.00;9.00
71097;PMS7003;58754;47.622;-2.986;2023-03-01T16:00:38;16.50;14.50;11.25
71097;PMS7003;58754;47.622;-2.986;2023-03-01T16:03:04;14.00;11.75;9.00
71097;PMS7003;58754;47.622;-2.986;2023-03-01T16:05:31;16.50;13.25;9.25
71097;PMS7003;58754;47.622;-2.986;2023-03-01T16:07:59;14.25;12.75;10.00
71097;PMS7003;58754;47.622;-2.986;2023-03-01T16:10:26;16.75;13.75;11.00
71097;PMS7003;58754;47.622;-2.986;2023-03-01T16:12:52;20.50;13.50;11.00
71097;PMS7003;58754;47.622;-2.986;2023-03-01T16:15:22;16.00;13.50;9.25
71097;PMS7003;58754;47.622;-2.986;2023-03-01T16:17:50;18.50;15.75;12.50
71097;PMS7003;58754;47.622;-2.986;2023-03-01T16:20:17;16.00;16.00;11.00
71097;PMS7003;58754;47.622;-2.986;2023-03-01T16:22:43;17.00;17.00;12.75
71097;PMS7003;58754;47.622;-2.986;2023-03-01T16:25:10;16.25;15.75;13.00
71097;PMS7003;58754;47.622;-2.986;2023-03-01T16:27:37;14.00;13.50;10.75
71097;PMS7003;58754;47.622;-2.986;2023-03-01T16:30:04;16.50;15.00;10.25
71097;PMS7003;58754;47.622;-2.986;2023-03-01T16:32:33;18.75;15.00;11.50
71097;PMS7003;58754;47.622;-2.986;2023-03-01T16:35:03;16.75;14.00;11.50
71097;PMS7003;58754;47.622;-2.986;2023-03-01T16:37:31;17.75;14.50;9.75
71097;PMS7003;58754;47.622;-2.986;2023-03-01T16:39:58;18.25;15.50;11.25
71097;PMS7003;58754;47.622;-2.986;2023-03-01T16:42:24;19.75;17.00;11.75
71097;PMS7003;58754;47.622;-2.986;2023-03-01T16:44:54;17.00;16.00;12.75
71097;PMS7003;58754;47.622;-2.986;2023-03-01T16:47:20;22.00;14.00;11.00
71097;PMS7003;58754;47.622;-2.986;2023-03-01T16:49:46;20.75;15.00;12.00
71097;PMS7003;58754;47.622;-2.986;2023-03-01T16:52:12;19.00;15.50;12.00